ANA592 RJOM-RJTT
Flight info
| Callsign | ANA592 |
|---|---|
| Flight time | 1h 5m |
| Altitude | 37000 |
| Route | SAKAR KRE V37 PADOC Y43 MENUR Y21 AKSEL |
| Aircraft | B772/H-SDE2FGILORVWX/LB1 |
Departure
| Time | 2026-04-24 23:41 |
|---|---|
| Airport | Matsuyama Airport (RJOM) |
Arrival
| Time | 2026-04-25 00:46 |
|---|---|
| Airport | Tokyo Haneda International Airport (RJTT) |
| Time | Latitude | Longitude | Altitude | Speed | Heading |
|---|---|---|---|---|---|
| 2026-04-24 23:15 | 33.82831 | 132.70361 | 30 ft | 0 kts | 41° |
| 2026-04-24 23:33 | 33.82820 | 132.70350 | 29 ft | 4 kts | 39° |
| 2026-04-24 23:33 | 33.82791 | 132.70324 | 28 ft | 4 kts | 32° |
| 2026-04-24 23:33 | 33.82767 | 132.70308 | 30 ft | 4 kts | 25° |
| 2026-04-24 23:34 | 33.82742 | 132.70296 | 29 ft | 4 kts | 13° |
| 2026-04-24 23:34 | 33.82717 | 132.70294 | 29 ft | 4 kts | 337° |
| 2026-04-24 23:34 | 33.82706 | 132.70303 | 29 ft | 1 kts | 311° |
| 2026-04-24 23:34 | 33.82704 | 132.70304 | 29 ft | 0 kts | 311° |
| 2026-04-24 23:37 | 33.82725 | 132.70271 | 27 ft | 6 kts | 305° |
| 2026-04-24 23:38 | 33.82780 | 132.70192 | 30 ft | 19 kts | 311° |
| 2026-04-24 23:38 | 33.82864 | 132.70074 | 30 ft | 18 kts | 310° |
| 2026-04-24 23:38 | 33.82946 | 132.69958 | 30 ft | 18 kts | 311° |
| 2026-04-24 23:38 | 33.83028 | 132.69843 | 30 ft | 18 kts | 310° |
| 2026-04-24 23:39 | 33.83110 | 132.69727 | 30 ft | 18 kts | 311° |
| 2026-04-24 23:39 | 33.83193 | 132.69613 | 30 ft | 18 kts | 311° |
| 2026-04-24 23:39 | 33.83275 | 132.69499 | 30 ft | 18 kts | 311° |
| 2026-04-24 23:39 | 33.83357 | 132.69385 | 30 ft | 18 kts | 310° |
| 2026-04-24 23:40 | 33.83439 | 132.69269 | 30 ft | 18 kts | 311° |
| 2026-04-24 23:40 | 33.83519 | 132.69155 | 30 ft | 17 kts | 309° |
| 2026-04-24 23:40 | 33.83539 | 132.69038 | 29 ft | 14 kts | 237° |
| 2026-04-24 23:40 | 33.83470 | 132.68970 | 29 ft | 12 kts | 205° |
| 2026-04-24 23:41 | 33.83426 | 132.68990 | 28 ft | 11 kts | 136° |
| 2026-04-24 23:41 | 33.83223 | 132.69268 | 28 ft | 87 kts | 131° |
| 2026-04-24 23:41 | 33.82643 | 132.70084 | 105 ft | 159 kts | 130° |
| 2026-04-24 23:41 | 33.81922 | 132.71080 | 1124 ft | 153 kts | 130° |
| 2026-04-24 23:42 | 33.81189 | 132.71973 | 2123 ft | 156 kts | 144° |
| 2026-04-24 23:42 | 33.80048 | 132.72311 | 2295 ft | 192 kts | 187° |
| 2026-04-24 23:42 | 33.78690 | 132.71825 | 2549 ft | 217 kts | 196° |
| 2026-04-24 23:42 | 33.77124 | 132.71308 | 2786 ft | 248 kts | 192° |
| 2026-04-24 23:43 | 33.75402 | 132.70872 | 3510 ft | 256 kts | 189° |
| 2026-04-24 23:43 | 33.73631 | 132.70517 | 4375 ft | 262 kts | 188° |
| 2026-04-24 23:43 | 33.71795 | 132.70200 | 5171 ft | 269 kts | 187° |
| 2026-04-24 23:43 | 33.69926 | 132.69899 | 5985 ft | 273 kts | 186° |
| 2026-04-24 23:44 | 33.68034 | 132.69686 | 6726 ft | 273 kts | 175° |
| 2026-04-24 23:44 | 33.66237 | 132.70424 | 7329 ft | 277 kts | 144° |
| 2026-04-24 23:44 | 33.64726 | 132.71851 | 7972 ft | 280 kts | 140° |
| 2026-04-24 23:44 | 33.63172 | 132.73296 | 8804 ft | 284 kts | 141° |
| 2026-04-24 23:45 | 33.61602 | 132.74734 | 9728 ft | 285 kts | 142° |
| 2026-04-24 23:45 | 33.60034 | 132.76174 | 10441 ft | 294 kts | 142° |
| 2026-04-24 23:45 | 33.58419 | 132.77760 | 10879 ft | 306 kts | 132° |
| 2026-04-24 23:45 | 33.57402 | 132.80022 | 11518 ft | 317 kts | 102° |
| 2026-04-24 23:46 | 33.57196 | 132.82652 | 12275 ft | 320 kts | 91° |
| 2026-04-24 23:46 | 33.57120 | 132.85357 | 13194 ft | 328 kts | 91° |
| 2026-04-24 23:46 | 33.57042 | 132.88118 | 14166 ft | 334 kts | 91° |
| 2026-04-24 23:46 | 33.56962 | 132.90943 | 14940 ft | 345 kts | 92° |
| 2026-04-24 23:47 | 33.56876 | 132.93860 | 15637 ft | 356 kts | 92° |
| 2026-04-24 23:47 | 33.56814 | 132.95850 | 16128 ft | 363 kts | 92° |
| 2026-04-24 23:47 | 33.56714 | 132.98904 | 16938 ft | 371 kts | 93° |
| 2026-04-24 23:47 | 33.56606 | 133.02041 | 17644 ft | 382 kts | 94° |
| 2026-04-24 23:48 | 33.56492 | 133.05272 | 18324 ft | 394 kts | 94° |
| 2026-04-24 23:48 | 33.56377 | 133.08595 | 18959 ft | 403 kts | 94° |
| 2026-04-24 23:48 | 33.56257 | 133.11968 | 19741 ft | 406 kts | 94° |
| 2026-04-24 23:48 | 33.56137 | 133.15371 | 20551 ft | 411 kts | 95° |
| 2026-04-24 23:49 | 33.56015 | 133.18805 | 21331 ft | 415 kts | 95° |
| 2026-04-24 23:49 | 33.55891 | 133.22291 | 22081 ft | 421 kts | 95° |
| 2026-04-24 23:49 | 33.55764 | 133.25820 | 22779 ft | 427 kts | 95° |
| 2026-04-24 23:49 | 33.55635 | 133.29411 | 23480 ft | 434 kts | 95° |
| 2026-04-24 23:50 | 33.55502 | 133.33058 | 24121 ft | 441 kts | 95° |
| 2026-04-24 23:50 | 33.55365 | 133.36760 | 24691 ft | 449 kts | 96° |
| 2026-04-24 23:50 | 33.55226 | 133.40531 | 25233 ft | 457 kts | 96° |
| 2026-04-24 23:50 | 33.55084 | 133.44363 | 25796 ft | 465 kts | 96° |
| 2026-04-24 23:51 | 33.54940 | 133.48266 | 26336 ft | 473 kts | 96° |
| 2026-04-24 23:51 | 33.54794 | 133.52235 | 26862 ft | 481 kts | 97° |
| 2026-04-24 23:51 | 33.54643 | 133.56267 | 27410 ft | 488 kts | 97° |
| 2026-04-24 23:51 | 33.54490 | 133.60360 | 27970 ft | 495 kts | 97° |
| 2026-04-24 23:52 | 33.54332 | 133.64509 | 28471 ft | 503 kts | 97° |
| 2026-04-24 23:52 | 33.54169 | 133.68725 | 28986 ft | 510 kts | 98° |
| 2026-04-24 23:52 | 33.53993 | 133.72996 | 29528 ft | 517 kts | 98° |
| 2026-04-24 23:52 | 33.53805 | 133.77323 | 30065 ft | 523 kts | 99° |
| 2026-04-24 23:53 | 33.53611 | 133.81705 | 30555 ft | 529 kts | 99° |
| 2026-04-24 23:53 | 33.53416 | 133.86113 | 31138 ft | 530 kts | 99° |
| 2026-04-24 23:53 | 33.53222 | 133.90516 | 31907 ft | 528 kts | 99° |
| 2026-04-24 23:53 | 33.53031 | 133.94930 | 32420 ft | 533 kts | 99° |
| 2026-04-24 23:54 | 33.52834 | 133.99341 | 32741 ft | 541 kts | 100° |
| 2026-04-24 23:54 | 33.52631 | 134.03854 | 33140 ft | 545 kts | 100° |
| 2026-04-24 23:54 | 33.52427 | 134.08405 | 33645 ft | 547 kts | 100° |
| 2026-04-24 23:54 | 33.52221 | 134.12963 | 34159 ft | 549 kts | 99° |
| 2026-04-24 23:55 | 33.52012 | 134.17536 | 34542 ft | 552 kts | 99° |
| 2026-04-24 23:55 | 33.51791 | 134.22144 | 34892 ft | 556 kts | 99° |
| 2026-04-24 23:55 | 33.51553 | 134.26789 | 35107 ft | 561 kts | 99° |
| 2026-04-24 23:55 | 33.51312 | 134.31469 | 35466 ft | 563 kts | 99° |
| 2026-04-24 23:56 | 33.51073 | 134.36147 | 35929 ft | 563 kts | 99° |
| 2026-04-24 23:56 | 33.50847 | 134.40826 | 36472 ft | 562 kts | 98° |
| 2026-04-24 23:56 | 33.50659 | 134.45494 | 36947 ft | 561 kts | 97° |
| 2026-04-24 23:56 | 33.50485 | 134.50173 | 37241 ft | 564 kts | 97° |
| 2026-04-24 23:57 | 33.50116 | 134.59613 | 37176 ft | 566 kts | 97° |
| 2026-04-24 23:57 | 33.49710 | 134.68985 | 37184 ft | 563 kts | 98° |
| 2026-04-24 23:58 | 33.49279 | 134.78402 | 37190 ft | 568 kts | 98° |
| 2026-04-24 23:58 | 33.48846 | 134.87858 | 37236 ft | 569 kts | 98° |
| 2026-04-24 23:59 | 33.48412 | 134.97325 | 37173 ft | 567 kts | 97° |
| 2026-04-24 23:59 | 33.47984 | 135.06726 | 37175 ft | 563 kts | 97° |
| 2026-04-25 00:00 | 33.47570 | 135.16070 | 37150 ft | 561 kts | 98° |
| 2026-04-25 00:00 | 33.47147 | 135.25406 | 37172 ft | 562 kts | 98° |
| 2026-04-25 00:01 | 33.46717 | 135.34709 | 37175 ft | 565 kts | 98° |
| 2026-04-25 00:01 | 33.46318 | 135.44136 | 37175 ft | 568 kts | 97° |
| 2026-04-25 00:02 | 33.45930 | 135.53591 | 37134 ft | 569 kts | 98° |
| 2026-04-25 00:02 | 33.45524 | 135.63047 | 37178 ft | 569 kts | 97° |
| 2026-04-25 00:03 | 33.45111 | 135.72516 | 37182 ft | 570 kts | 97° |
| 2026-04-25 00:03 | 33.45440 | 135.82030 | 37173 ft | 575 kts | 85° |
| 2026-04-25 00:04 | 33.47008 | 135.91416 | 37183 ft | 575 kts | 76° |
| 2026-04-25 00:04 | 33.48929 | 136.00720 | 37164 ft | 575 kts | 76° |
| 2026-04-25 00:05 | 33.50795 | 136.10040 | 37187 ft | 575 kts | 77° |
| 2026-04-25 00:05 | 33.52606 | 136.19380 | 37193 ft | 576 kts | 77° |
| 2026-04-25 00:06 | 33.54402 | 136.28738 | 37187 ft | 576 kts | 77° |
| 2026-04-25 00:06 | 33.56199 | 136.38103 | 37200 ft | 577 kts | 77° |
| 2026-04-25 00:07 | 33.57992 | 136.47474 | 37188 ft | 577 kts | 77° |
| 2026-04-25 00:07 | 33.59778 | 136.56849 | 37189 ft | 576 kts | 77° |
| 2026-04-25 00:08 | 33.61556 | 136.66226 | 37193 ft | 576 kts | 77° |
| 2026-04-25 00:08 | 33.63325 | 136.75595 | 37134 ft | 576 kts | 77° |
| 2026-04-25 00:09 | 33.65089 | 136.84895 | 37186 ft | 575 kts | 77° |
| 2026-04-25 00:09 | 33.66870 | 136.94260 | 37190 ft | 576 kts | 77° |
| 2026-04-25 00:10 | 33.68643 | 137.03642 | 37196 ft | 577 kts | 77° |
| 2026-04-25 00:10 | 33.70411 | 137.13053 | 37188 ft | 578 kts | 77° |
| 2026-04-25 00:11 | 33.72154 | 137.22478 | 37187 ft | 578 kts | 77° |
| 2026-04-25 00:11 | 33.73880 | 137.31910 | 37187 ft | 578 kts | 77° |
| 2026-04-25 00:12 | 33.75601 | 137.41340 | 37192 ft | 578 kts | 77° |
| 2026-04-25 00:12 | 33.77318 | 137.50777 | 37187 ft | 578 kts | 77° |
| 2026-04-25 00:13 | 33.79028 | 137.60216 | 37203 ft | 577 kts | 77° |
| 2026-04-25 00:13 | 33.80732 | 137.69657 | 37199 ft | 579 kts | 77° |
| 2026-04-25 00:14 | 33.82439 | 137.79124 | 37040 ft | 579 kts | 77° |
| 2026-04-25 00:14 | 33.83287 | 137.83844 | 36671 ft | 574 kts | 77° |
| 2026-04-25 00:14 | 33.84124 | 137.88515 | 36314 ft | 568 kts | 77° |
| 2026-04-25 00:15 | 33.84951 | 137.93143 | 35974 ft | 562 kts | 77° |
| 2026-04-25 00:15 | 33.85766 | 137.97714 | 35620 ft | 557 kts | 78° |
| 2026-04-25 00:15 | 33.86574 | 138.02257 | 35272 ft | 553 kts | 78° |
| 2026-04-25 00:15 | 33.87374 | 138.06761 | 34907 ft | 548 kts | 78° |
| 2026-04-25 00:16 | 33.88154 | 138.11167 | 34558 ft | 545 kts | 79° |
| 2026-04-25 00:16 | 33.88940 | 138.15612 | 34194 ft | 541 kts | 79° |
| 2026-04-25 00:16 | 33.89719 | 138.20033 | 33784 ft | 537 kts | 79° |
| 2026-04-25 00:16 | 33.90574 | 138.24390 | 33416 ft | 534 kts | 74° |
| 2026-04-25 00:17 | 33.91730 | 138.28612 | 33040 ft | 529 kts | 68° |
| 2026-04-25 00:17 | 33.93141 | 138.32681 | 32654 ft | 524 kts | 62° |
| 2026-04-25 00:17 | 33.94822 | 138.36544 | 32289 ft | 518 kts | 58° |
| 2026-04-25 00:17 | 33.96548 | 138.40339 | 31931 ft | 515 kts | 58° |
| 2026-04-25 00:18 | 33.98269 | 138.44100 | 31581 ft | 512 kts | 58° |
| 2026-04-25 00:18 | 33.99975 | 138.47855 | 31204 ft | 509 kts | 58° |
| 2026-04-25 00:18 | 34.01661 | 138.51599 | 30850 ft | 506 kts | 58° |
| 2026-04-25 00:18 | 34.03325 | 138.55327 | 30498 ft | 504 kts | 58° |
| 2026-04-25 00:19 | 34.04975 | 138.59044 | 30100 ft | 502 kts | 59° |
| 2026-04-25 00:19 | 34.06614 | 138.62747 | 29673 ft | 498 kts | 59° |
| 2026-04-25 00:19 | 34.08237 | 138.66419 | 29236 ft | 495 kts | 59° |
| 2026-04-25 00:19 | 34.09850 | 138.70070 | 28802 ft | 491 kts | 59° |
| 2026-04-25 00:20 | 34.11448 | 138.73690 | 28380 ft | 487 kts | 59° |
| 2026-04-25 00:20 | 34.13035 | 138.77285 | 27963 ft | 483 kts | 59° |
| 2026-04-25 00:20 | 34.14609 | 138.80853 | 27566 ft | 480 kts | 59° |
| 2026-04-25 00:20 | 34.16167 | 138.84391 | 27158 ft | 476 kts | 59° |
| 2026-04-25 00:21 | 34.17719 | 138.87916 | 26763 ft | 473 kts | 58° |
| 2026-04-25 00:21 | 34.19258 | 138.91414 | 26359 ft | 470 kts | 58° |
| 2026-04-25 00:21 | 34.20785 | 138.94892 | 25953 ft | 467 kts | 58° |
| 2026-04-25 00:21 | 34.22293 | 138.98352 | 25549 ft | 465 kts | 59° |
| 2026-04-25 00:22 | 34.23783 | 139.01801 | 25144 ft | 462 kts | 59° |
| 2026-04-25 00:22 | 34.25264 | 139.05235 | 24742 ft | 459 kts | 59° |
| 2026-04-25 00:22 | 34.26737 | 139.08647 | 24308 ft | 457 kts | 59° |
| 2026-04-25 00:22 | 34.28199 | 139.12048 | 23916 ft | 455 kts | 60° |
| 2026-04-25 00:23 | 34.29511 | 139.15520 | 23444 ft | 453 kts | 64° |
| 2026-04-25 00:23 | 34.30728 | 139.19025 | 22995 ft | 450 kts | 65° |
| 2026-04-25 00:23 | 34.31915 | 139.22506 | 22569 ft | 446 kts | 65° |
| 2026-04-25 00:23 | 34.33089 | 139.25957 | 22148 ft | 442 kts | 66° |
| 2026-04-25 00:24 | 34.34257 | 139.29376 | 21727 ft | 438 kts | 66° |
| 2026-04-25 00:24 | 34.35419 | 139.32763 | 21306 ft | 434 kts | 66° |
| 2026-04-25 00:24 | 34.36575 | 139.36124 | 20880 ft | 431 kts | 66° |
| 2026-04-25 00:24 | 34.37723 | 139.39458 | 20444 ft | 428 kts | 67° |
| 2026-04-25 00:25 | 34.38863 | 139.42767 | 20017 ft | 425 kts | 67° |
| 2026-04-25 00:25 | 34.39995 | 139.46059 | 19591 ft | 421 kts | 68° |
| 2026-04-25 00:25 | 34.41102 | 139.49281 | 19130 ft | 419 kts | 68° |
| 2026-04-25 00:25 | 34.42229 | 139.52566 | 18699 ft | 416 kts | 68° |
| 2026-04-25 00:26 | 34.43334 | 139.55791 | 18186 ft | 408 kts | 69° |
| 2026-04-25 00:26 | 34.44379 | 139.58844 | 17687 ft | 377 kts | 68° |
| 2026-04-25 00:26 | 34.45359 | 139.61706 | 17297 ft | 365 kts | 68° |
| 2026-04-25 00:26 | 34.46312 | 139.64501 | 16904 ft | 363 kts | 68° |
| 2026-04-25 00:27 | 34.47274 | 139.67320 | 16486 ft | 361 kts | 67° |
| 2026-04-25 00:27 | 34.48281 | 139.70067 | 16058 ft | 353 kts | 59° |
| 2026-04-25 00:27 | 34.49791 | 139.72372 | 15627 ft | 347 kts | 40° |
| 2026-04-25 00:27 | 34.51723 | 139.74071 | 15215 ft | 341 kts | 28° |
| 2026-04-25 00:28 | 34.53670 | 139.75476 | 14925 ft | 312 kts | 27° |
| 2026-04-25 00:28 | 34.55488 | 139.76768 | 14478 ft | 300 kts | 26° |
| 2026-04-25 00:28 | 34.57270 | 139.78035 | 14289 ft | 293 kts | 25° |
| 2026-04-25 00:28 | 34.58979 | 139.79261 | 13951 ft | 278 kts | 26° |
| 2026-04-25 00:29 | 34.60622 | 139.80451 | 13138 ft | 273 kts | 26° |
| 2026-04-25 00:29 | 34.62260 | 139.81642 | 12484 ft | 276 kts | 26° |
| 2026-04-25 00:29 | 34.63899 | 139.82835 | 12253 ft | 275 kts | 28° |
| 2026-04-25 00:29 | 34.65536 | 139.84034 | 12065 ft | 274 kts | 27° |
| 2026-04-25 00:30 | 34.67151 | 139.85217 | 11992 ft | 267 kts | 28° |
| 2026-04-25 00:30 | 34.68814 | 139.86112 | 11966 ft | 261 kts | 14° |
| 2026-04-25 00:30 | 34.70584 | 139.86622 | 11750 ft | 263 kts | 9° |
| 2026-04-25 00:30 | 34.72363 | 139.87043 | 11452 ft | 260 kts | 9° |
| 2026-04-25 00:31 | 34.74154 | 139.87457 | 11059 ft | 263 kts | 9° |
| 2026-04-25 00:31 | 34.75928 | 139.87881 | 10907 ft | 258 kts | 10° |
| 2026-04-25 00:31 | 34.77676 | 139.88305 | 10815 ft | 255 kts | 11° |
| 2026-04-25 00:31 | 34.79426 | 139.88738 | 10707 ft | 259 kts | 11° |
| 2026-04-25 00:32 | 34.81205 | 139.89186 | 10582 ft | 262 kts | 11° |
| 2026-04-25 00:32 | 34.82985 | 139.89639 | 10435 ft | 261 kts | 11° |
| 2026-04-25 00:32 | 34.84758 | 139.90093 | 10267 ft | 260 kts | 11° |
| 2026-04-25 00:32 | 34.85926 | 139.90393 | 10176 ft | 258 kts | 11° |
| 2026-04-25 00:33 | 34.88244 | 139.90992 | 9964 ft | 256 kts | 12° |
| 2026-04-25 00:33 | 34.89976 | 139.91441 | 9825 ft | 253 kts | 11° |
| 2026-04-25 00:33 | 34.91694 | 139.91886 | 9689 ft | 252 kts | 12° |
| 2026-04-25 00:33 | 34.93437 | 139.92338 | 9554 ft | 254 kts | 12° |
| 2026-04-25 00:34 | 34.95173 | 139.92789 | 9438 ft | 255 kts | 11° |
| 2026-04-25 00:34 | 34.96885 | 139.93235 | 9312 ft | 255 kts | 11° |
| 2026-04-25 00:34 | 34.98624 | 139.93683 | 9180 ft | 256 kts | 11° |
| 2026-04-25 00:34 | 35.00367 | 139.94137 | 9059 ft | 256 kts | 11° |
| 2026-04-25 00:35 | 35.02107 | 139.94590 | 8920 ft | 256 kts | 11° |
| 2026-04-25 00:35 | 35.03856 | 139.95048 | 8802 ft | 257 kts | 11° |
| 2026-04-25 00:35 | 35.05608 | 139.95504 | 8670 ft | 258 kts | 11° |
| 2026-04-25 00:35 | 35.07361 | 139.95962 | 8556 ft | 257 kts | 11° |
| 2026-04-25 00:36 | 35.08530 | 139.96267 | 8465 ft | 251 kts | 11° |
| 2026-04-25 00:36 | 35.10219 | 139.96708 | 8326 ft | 245 kts | 10° |
| 2026-04-25 00:36 | 35.11882 | 139.97142 | 8197 ft | 245 kts | 10° |
| 2026-04-25 00:36 | 35.13556 | 139.97277 | 8105 ft | 246 kts | 347° |
| 2026-04-25 00:37 | 35.15095 | 139.96366 | 7991 ft | 251 kts | 320° |
| 2026-04-25 00:37 | 35.16151 | 139.94665 | 7780 ft | 253 kts | 296° |
| 2026-04-25 00:37 | 35.16788 | 139.92716 | 7531 ft | 250 kts | 293° |
| 2026-04-25 00:37 | 35.17429 | 139.90750 | 7297 ft | 247 kts | 294° |
| 2026-04-25 00:38 | 35.18067 | 139.88814 | 7088 ft | 244 kts | 294° |
| 2026-04-25 00:38 | 35.18699 | 139.86899 | 6852 ft | 242 kts | 294° |
| 2026-04-25 00:38 | 35.19329 | 139.85001 | 6646 ft | 241 kts | 294° |
| 2026-04-25 00:38 | 35.19957 | 139.83114 | 6417 ft | 237 kts | 296° |
| 2026-04-25 00:39 | 35.20919 | 139.81547 | 6166 ft | 230 kts | 326° |
| 2026-04-25 00:39 | 35.22329 | 139.80760 | 6042 ft | 219 kts | 343° |
| 2026-04-25 00:39 | 35.23793 | 139.80277 | 5827 ft | 216 kts | 346° |
| 2026-04-25 00:39 | 35.25247 | 139.79831 | 5611 ft | 215 kts | 346° |
| 2026-04-25 00:40 | 35.26712 | 139.79378 | 5360 ft | 220 kts | 346° |
| 2026-04-25 00:40 | 35.28206 | 139.78910 | 5114 ft | 223 kts | 346° |
| 2026-04-25 00:40 | 35.29717 | 139.78436 | 4869 ft | 225 kts | 346° |
| 2026-04-25 00:40 | 35.31227 | 139.78070 | 4574 ft | 216 kts | 2° |
| 2026-04-25 00:41 | 35.32620 | 139.78623 | 4289 ft | 211 kts | 33° |
| 2026-04-25 00:41 | 35.33855 | 139.79600 | 4066 ft | 214 kts | 34° |
| 2026-04-25 00:41 | 35.35119 | 139.80570 | 3821 ft | 214 kts | 34° |
| 2026-04-25 00:41 | 35.36383 | 139.81543 | 3501 ft | 215 kts | 34° |
| 2026-04-25 00:42 | 35.37645 | 139.82519 | 3154 ft | 210 kts | 35° |
| 2026-04-25 00:42 | 35.38866 | 139.83465 | 2857 ft | 207 kts | 34° |
| 2026-04-25 00:42 | 35.40071 | 139.84399 | 2606 ft | 203 kts | 34° |
| 2026-04-25 00:42 | 35.41320 | 139.85133 | 2276 ft | 200 kts | 12° |
| 2026-04-25 00:43 | 35.42682 | 139.85149 | 2099 ft | 190 kts | 1° |
| 2026-04-25 00:43 | 35.43954 | 139.85064 | 2006 ft | 177 kts | 349° |
| 2026-04-25 00:43 | 35.45021 | 139.84474 | 1984 ft | 165 kts | 339° |
| 2026-04-25 00:43 | 35.46069 | 139.83888 | 1728 ft | 164 kts | 337° |
| 2026-04-25 00:44 | 35.47060 | 139.83230 | 1507 ft | 161 kts | 334° |
| 2026-04-25 00:44 | 35.48030 | 139.82546 | 1314 ft | 160 kts | 334° |
| 2026-04-25 00:44 | 35.48978 | 139.81874 | 1061 ft | 151 kts | 334° |
| 2026-04-25 00:44 | 35.49834 | 139.81267 | 895 ft | 138 kts | 334° |
| 2026-04-25 00:45 | 35.50643 | 139.80696 | 720 ft | 132 kts | 333° |
| 2026-04-25 00:45 | 35.51431 | 139.80132 | 576 ft | 130 kts | 333° |
| 2026-04-25 00:45 | 35.52210 | 139.79570 | 412 ft | 129 kts | 334° |
| 2026-04-25 00:45 | 35.52999 | 139.79024 | 223 ft | 131 kts | 334° |
| 2026-04-25 00:46 | 35.53792 | 139.78467 | 62 ft | 132 kts | 335° |
| 2026-04-25 00:46 | 35.54485 | 139.77994 | 25 ft | 112 kts | 333° |
| 2026-04-25 00:46 | 35.55353 | 139.77385 | 26 ft | 39 kts | 341° |
| 2026-04-25 00:47 | 35.55568 | 139.77351 | 27 ft | 28 kts | 359° |
| 2026-04-25 00:47 | 35.55723 | 139.77346 | 29 ft | 18 kts | 346° |
| 2026-04-25 00:47 | 35.55823 | 139.77313 | 26 ft | 13 kts | 25° |
| 2026-04-25 00:47 | 35.55874 | 139.77404 | 28 ft | 13 kts | 58° |
| 2026-04-25 00:48 | 35.55924 | 139.77505 | 27 ft | 17 kts | 59° |
| 2026-04-25 00:48 | 35.55983 | 139.77633 | 28 ft | 19 kts | 59° |
| 2026-04-25 00:48 | 35.56054 | 139.77778 | 28 ft | 20 kts | 59° |
| 2026-04-25 00:48 | 35.56126 | 139.77930 | 29 ft | 20 kts | 59° |
| 2026-04-25 00:49 | 35.56198 | 139.78080 | 30 ft | 20 kts | 60° |
| 2026-04-25 00:49 | 35.56268 | 139.78232 | 29 ft | 20 kts | 60° |
| 2026-04-25 00:49 | 35.56334 | 139.78370 | 28 ft | 15 kts | 64° |
| 2026-04-25 00:49 | 35.56308 | 139.78472 | 28 ft | 14 kts | 148° |
| 2026-04-25 00:50 | 35.56226 | 139.78530 | 29 ft | 14 kts | 150° |
| 2026-04-25 00:50 | 35.56144 | 139.78588 | 28 ft | 14 kts | 149° |
| 2026-04-25 00:50 | 35.56047 | 139.78657 | 26 ft | 18 kts | 149° |
| 2026-04-25 00:50 | 35.55931 | 139.78741 | 27 ft | 20 kts | 149° |
| 2026-04-25 00:51 | 35.55812 | 139.78825 | 28 ft | 20 kts | 149° |
| 2026-04-25 00:51 | 35.55695 | 139.78908 | 29 ft | 20 kts | 150° |
| 2026-04-25 00:51 | 35.55575 | 139.78992 | 30 ft | 20 kts | 150° |
| 2026-04-25 00:51 | 35.55456 | 139.79076 | 31 ft | 20 kts | 150° |
| 2026-04-25 00:52 | 35.55338 | 139.79161 | 31 ft | 20 kts | 150° |
| 2026-04-25 00:52 | 35.55219 | 139.79245 | 31 ft | 20 kts | 149° |
| 2026-04-25 00:52 | 35.55123 | 139.79305 | 28 ft | 14 kts | 168° |
| 2026-04-25 00:52 | 35.55052 | 139.79253 | 31 ft | 13 kts | 237° |
| 2026-04-25 00:53 | 35.55047 | 139.79158 | 33 ft | 11 kts | 305° |
| 2026-04-25 00:53 | 35.55075 | 139.79092 | 32 ft | 8 kts | 263° |
| 2026-04-25 00:53 | 35.55058 | 139.79051 | 30 ft | 2 kts | 241° |
| 2026-04-25 00:53 | 35.55051 | 139.79035 | 32 ft | 1 kts | 240° |
| 2026-04-25 00:54 | 35.55051 | 139.79034 | 32 ft | 0 kts | 240° |